createdAt,value
2022-10-06T00:00:06.090Z,1003.96
2022-10-06T00:01:06.153Z,1003.95
2022-10-06T00:02:06.060Z,1003.97
2022-10-06T00:03:06.045Z,1003.92
2022-10-06T00:04:06.027Z,1003.96
2022-10-06T00:05:06.009Z,1003.95
2022-10-06T00:06:06.031Z,1004.01
2022-10-06T00:07:05.999Z,1004.04
2022-10-06T00:08:10.002Z,1004.05
2022-10-06T00:09:05.959Z,1004.06
2022-10-06T00:10:05.959Z,1004.10
2022-10-06T00:11:05.939Z,1004.19
2022-10-06T00:12:05.958Z,1004.23
2022-10-06T00:13:05.919Z,1004.27
2022-10-06T00:14:05.911Z,1004.18
2022-10-06T00:15:05.899Z,1004.25
2022-10-06T00:16:05.938Z,1004.29
2022-10-06T00:17:05.870Z,1004.27
2022-10-06T00:18:05.902Z,1004.29
2022-10-06T00:19:06.249Z,1004.29
2022-10-06T00:20:05.851Z,1004.32
2022-10-06T00:21:05.834Z,1004.32
2022-10-06T00:22:05.821Z,1004.34
2022-10-06T00:23:05.811Z,1004.33
2022-10-06T00:24:05.831Z,1004.40
2022-10-06T00:25:05.788Z,1004.36
2022-10-06T00:26:05.779Z,1004.40
2022-10-06T00:27:05.773Z,1004.35
2022-10-06T00:28:05.819Z,1004.37
2022-10-06T00:29:05.740Z,1004.34
2022-10-06T00:30:05.750Z,1004.31
2022-10-06T00:31:05.761Z,1004.37
2022-10-06T00:32:05.729Z,1004.37
2022-10-06T00:33:05.690Z,1004.39
2022-10-06T00:34:05.690Z,1004.44
2022-10-06T00:35:05.691Z,1004.45
2022-10-06T00:36:05.660Z,1004.45
2022-10-06T00:37:05.651Z,1004.48
2022-10-06T00:38:05.650Z,1004.48
2022-10-06T00:39:05.629Z,1004.47
2022-10-06T00:40:05.622Z,1004.46
2022-10-06T00:41:05.621Z,1004.49
2022-10-06T00:42:05.599Z,1004.47
2022-10-06T00:43:05.581Z,1004.44
2022-10-06T00:44:05.579Z,1004.53
2022-10-06T00:45:05.562Z,1004.51
2022-10-06T00:46:05.605Z,1004.50
2022-10-06T00:47:05.541Z,1004.51
2022-10-06T00:48:05.532Z,1004.57
2022-10-06T00:49:05.522Z,1004.52
2022-10-06T00:50:05.510Z,1004.47
2022-10-06T00:51:05.492Z,1004.59
2022-10-06T00:52:05.511Z,1004.51
2022-10-06T00:53:05.471Z,1004.60
2022-10-06T00:54:05.480Z,1004.61
2022-10-06T00:55:05.451Z,1004.70
2022-10-06T00:56:05.442Z,1004.66
2022-10-06T00:57:05.423Z,1004.68
2022-10-06T00:58:05.441Z,1004.66
2022-10-06T00:59:05.410Z,1004.68
2022-10-06T01:00:05.400Z,1004.70
2022-10-06T01:01:05.428Z,1004.81
2022-10-06T01:02:05.379Z,1004.75
2022-10-06T01:03:05.413Z,1004.74
2022-10-06T01:04:05.374Z,1004.75
2022-10-06T01:05:05.332Z,1004.86
2022-10-06T01:06:05.332Z,1004.90
2022-10-06T01:07:05.315Z,1004.87
2022-10-06T01:08:05.302Z,1004.87
2022-10-06T01:09:05.292Z,1004.91
2022-10-06T01:10:05.311Z,1005.00
2022-10-06T01:11:05.272Z,1004.98
2022-10-06T01:12:05.264Z,1004.92
2022-10-06T01:13:05.253Z,1004.91
2022-10-06T01:14:05.242Z,1004.92
2022-10-06T01:15:05.231Z,1004.99
2022-10-06T01:16:05.283Z,1004.95
2022-10-06T01:17:05.203Z,1004.92
2022-10-06T01:18:05.193Z,1004.99
2022-10-06T01:19:05.183Z,1005.03
2022-10-06T01:20:05.260Z,1005.09
2022-10-06T01:21:05.162Z,1005.08
2022-10-06T01:22:05.175Z,1005.07
2022-10-06T01:23:05.192Z,1005.16
2022-10-06T01:24:05.135Z,1005.17
2022-10-06T01:25:05.113Z,1005.24
2022-10-06T01:26:05.104Z,1005.18
2022-10-06T01:27:05.093Z,1005.31
2022-10-06T01:28:05.171Z,1005.31
2022-10-06T01:29:05.077Z,1005.37
2022-10-06T01:30:05.063Z,1005.42
2022-10-06T01:31:05.087Z,1005.43
2022-10-06T01:32:05.033Z,1005.47
2022-10-06T01:33:05.025Z,1005.53
2022-10-06T01:34:05.044Z,1005.64
2022-10-06T01:35:04.994Z,1005.77
2022-10-06T01:36:04.994Z,1005.71
2022-10-06T01:37:04.974Z,1005.79
2022-10-06T01:38:04.972Z,1005.68
2022-10-06T01:39:04.955Z,1005.73
2022-10-06T01:40:05.054Z,1005.72
2022-10-06T01:41:04.933Z,1005.68
2022-10-06T01:42:04.924Z,1005.72
2022-10-06T01:43:04.915Z,1005.62
2022-10-06T01:44:04.903Z,1005.64
2022-10-06T01:45:04.886Z,1005.64
2022-10-06T01:46:04.978Z,1005.63
2022-10-06T01:47:04.864Z,1005.73
2022-10-06T01:48:04.855Z,1005.70
2022-10-06T01:49:04.844Z,1005.77
2022-10-06T01:50:04.903Z,1005.77
2022-10-06T01:51:04.823Z,1005.82
2022-10-06T01:52:04.827Z,1005.87
2022-10-06T01:53:04.796Z,1005.84
2022-10-06T01:54:04.785Z,1005.90
2022-10-06T01:55:04.773Z,1005.89
2022-10-06T01:56:04.780Z,1005.92
2022-10-06T01:57:04.781Z,1005.90
2022-10-06T01:58:04.743Z,1005.94
2022-10-06T01:59:04.727Z,1005.94
2022-10-06T02:00:04.734Z,1006.03
2022-10-06T02:01:04.705Z,1006.00
2022-10-06T02:02:04.745Z,1005.98
2022-10-06T02:03:04.696Z,1006.02
2022-10-06T02:04:04.715Z,1006.06
2022-10-06T02:05:04.656Z,1006.01
2022-10-06T02:06:04.669Z,1006.06
2022-10-06T02:07:04.637Z,1006.12
2022-10-06T02:08:04.646Z,1006.07
2022-10-06T02:09:04.615Z,1006.12
2022-10-06T02:10:04.609Z,1006.15
2022-10-06T02:11:04.588Z,1006.12
2022-10-06T02:12:04.577Z,1006.06
2022-10-06T02:13:04.567Z,1006.13
2022-10-06T02:14:04.590Z,1006.22
2022-10-06T02:15:04.537Z,1006.20
2022-10-06T02:16:04.610Z,1006.19
2022-10-06T02:17:04.518Z,1006.27
2022-10-06T02:18:04.517Z,1006.29
2022-10-06T02:19:04.497Z,1006.33
2022-10-06T02:20:04.512Z,1006.28
2022-10-06T02:21:04.478Z,1006.32
2022-10-06T02:22:04.468Z,1006.33
2022-10-06T02:23:04.449Z,1006.38
2022-10-06T02:24:04.447Z,1006.39
2022-10-06T02:25:04.430Z,1006.37
2022-10-06T02:26:04.446Z,1006.37
2022-10-06T02:27:04.408Z,1006.42
2022-10-06T02:28:04.428Z,1006.44
2022-10-06T02:29:04.379Z,1006.54
2022-10-06T02:30:04.378Z,1006.61
2022-10-06T02:31:04.447Z,1006.55
2022-10-06T02:32:04.394Z,1006.55
2022-10-06T02:33:04.338Z,1006.53
2022-10-06T02:34:04.328Z,1006.53
2022-10-06T02:35:04.318Z,1006.52
2022-10-06T02:36:04.308Z,1006.49
2022-10-06T02:37:04.305Z,1006.53
2022-10-06T02:38:04.320Z,1006.52
2022-10-06T02:39:04.279Z,1006.59
2022-10-06T02:40:04.259Z,1006.62
2022-10-06T02:41:04.250Z,1006.63
2022-10-06T02:42:04.239Z,1006.68
2022-10-06T02:43:04.229Z,1006.62
2022-10-06T02:44:04.243Z,1006.63
2022-10-06T02:45:04.201Z,1006.65
2022-10-06T02:46:04.215Z,1006.70
2022-10-06T02:47:04.179Z,1006.79
2022-10-06T02:48:04.171Z,1006.89
2022-10-06T02:49:04.158Z,1006.85
2022-10-06T02:50:04.170Z,1006.82
2022-10-06T02:51:04.138Z,1006.82
2022-10-06T02:52:04.121Z,1006.84
2022-10-06T02:53:04.110Z,1006.82
2022-10-06T02:54:04.100Z,1006.86
2022-10-06T02:55:04.089Z,1006.91
2022-10-06T02:56:04.101Z,1007.04
2022-10-06T02:57:04.062Z,1007.07
2022-10-06T02:58:04.060Z,1007.09
2022-10-06T02:59:04.040Z,1007.16
2022-10-06T03:00:04.032Z,1007.14
2022-10-06T03:01:04.023Z,1007.08
2022-10-06T03:02:04.067Z,1007.04
2022-10-06T03:03:04.063Z,1006.96
2022-10-06T03:04:03.991Z,1007.02
2022-10-06T03:05:03.971Z,1007.01
2022-10-06T03:06:03.968Z,1006.99
2022-10-06T03:07:04.008Z,1007.02
2022-10-06T03:08:03.961Z,1007.01
2022-10-06T03:09:03.932Z,1006.98
2022-10-06T03:10:03.921Z,1006.94
2022-10-06T03:11:03.902Z,1007.01
2022-10-06T03:12:03.899Z,1007.03
2022-10-06T03:13:03.881Z,1007.02
2022-10-06T03:14:03.894Z,1007.04
2022-10-06T03:15:03.863Z,1007.04
2022-10-06T03:16:03.894Z,1007.05
2022-10-06T03:17:03.839Z,1007.07
2022-10-06T03:18:03.829Z,1007.15
2022-10-06T03:19:03.835Z,1007.10
2022-10-06T03:20:03.806Z,1007.13
2022-10-06T03:21:03.791Z,1007.06
2022-10-06T03:22:03.783Z,1007.08
2022-10-06T03:23:03.775Z,1007.08
2022-10-06T03:25:00.220Z,1007.28
2022-10-06T03:26:00.196Z,1007.35
2022-10-06T03:27:00.175Z,1007.33
2022-10-06T03:28:00.207Z,1007.34
2022-10-06T03:29:00.147Z,1007.38
2022-10-06T03:30:00.183Z,1007.38
2022-10-06T03:31:00.176Z,1007.33
2022-10-06T03:32:00.107Z,1007.42
2022-10-06T03:33:00.116Z,1007.40
2022-10-06T03:34:00.091Z,1007.50
2022-10-06T03:35:00.115Z,1007.46
2022-10-06T03:36:00.082Z,1007.52
2022-10-06T03:37:00.049Z,1007.43
2022-10-06T03:38:00.035Z,1007.48
2022-10-06T03:39:00.032Z,1007.46
2022-10-06T03:40:00.006Z,1007.39
2022-10-06T03:41:00.025Z,1007.42
2022-10-06T03:41:59.987Z,1007.42
2022-10-06T03:42:59.985Z,1007.41
2022-10-06T03:43:59.969Z,1007.42
2022-10-06T03:44:59.957Z,1007.37
2022-10-06T03:45:59.948Z,1007.44
2022-10-06T03:47:00.029Z,1007.47
2022-10-06T03:47:59.916Z,1007.43
2022-10-06T03:48:59.915Z,1007.49
2022-10-06T03:49:59.897Z,1007.47
2022-10-06T03:50:59.894Z,1007.52
2022-10-06T03:51:59.878Z,1007.58
2022-10-06T03:52:59.888Z,1007.60
2022-10-06T03:53:59.859Z,1007.59
2022-10-06T03:54:59.847Z,1007.62
2022-10-06T03:55:59.827Z,1007.61
2022-10-06T03:56:59.827Z,1007.63
2022-10-06T03:57:59.848Z,1007.57
2022-10-06T03:58:59.798Z,1007.64
2022-10-06T03:59:59.801Z,1007.63
2022-10-06T04:00:59.812Z,1007.69
2022-10-06T04:01:59.782Z,1007.72
2022-10-06T04:02:59.756Z,1007.72
2022-10-06T04:03:59.759Z,1007.72
2022-10-06T04:04:59.727Z,1007.77
2022-10-06T04:05:59.717Z,1007.82
2022-10-06T04:06:59.706Z,1007.84
2022-10-06T04:07:59.690Z,1007.89
2022-10-06T04:08:59.686Z,1007.89
2022-10-06T04:09:59.689Z,1007.91
2022-10-06T04:10:59.658Z,1007.95
2022-10-06T04:11:59.647Z,1008.01
2022-10-06T04:12:59.637Z,1008.04
2022-10-06T04:13:59.619Z,1008.02
2022-10-06T04:15:00.346Z,1008.09
2022-10-06T04:15:59.660Z,1008.20
2022-10-06T04:16:59.591Z,1008.17
2022-10-06T04:17:59.579Z,1008.15
2022-10-06T04:18:59.566Z,1008.13
2022-10-06T04:19:59.558Z,1008.18
2022-10-06T04:20:59.540Z,1008.20
2022-10-06T04:21:59.561Z,1008.18
2022-10-06T04:22:59.518Z,1008.20
2022-10-06T04:23:59.519Z,1008.23
2022-10-06T04:24:59.501Z,1008.30
2022-10-06T04:25:59.489Z,1008.29
2022-10-06T04:26:59.471Z,1008.30
2022-10-06T04:27:59.503Z,1008.26
2022-10-06T04:28:59.450Z,1008.29
2022-10-06T04:29:59.439Z,1008.39
2022-10-06T04:30:59.429Z,1008.50
2022-10-06T04:31:59.485Z,1008.47
2022-10-06T04:32:59.399Z,1008.55
2022-10-06T04:33:59.418Z,1008.58
2022-10-06T04:34:59.380Z,1008.58
2022-10-06T04:35:59.370Z,1008.62
2022-10-06T04:36:59.359Z,1008.61
2022-10-06T04:37:59.351Z,1008.63
2022-10-06T04:38:59.331Z,1008.64
2022-10-06T04:39:59.341Z,1008.67
2022-10-06T04:40:59.311Z,1008.71
2022-10-06T04:41:59.300Z,1008.75
2022-10-06T04:42:59.290Z,1008.71
2022-10-06T04:43:59.281Z,1008.71
2022-10-06T04:44:59.289Z,1008.71
2022-10-06T04:45:59.317Z,1008.67
2022-10-06T04:46:59.259Z,1008.71
2022-10-06T04:47:59.240Z,1008.74
2022-10-06T04:48:59.221Z,1008.77
2022-10-06T04:49:59.211Z,1008.82
2022-10-06T04:50:59.222Z,1008.77
2022-10-06T04:51:59.194Z,1008.80
2022-10-06T04:52:59.181Z,1008.79
2022-10-06T04:53:59.174Z,1008.80
2022-10-06T04:54:59.192Z,1008.82
2022-10-06T04:55:59.141Z,1008.82
2022-10-06T04:56:59.153Z,1008.80
2022-10-06T04:57:59.121Z,1008.76
2022-10-06T04:58:59.102Z,1008.84
2022-10-06T05:00:02.866Z,1008.87
2022-10-06T05:01:00.158Z,1008.89
2022-10-06T05:01:59.141Z,1008.87
2022-10-06T05:02:59.122Z,1008.93
2022-10-06T05:03:59.053Z,1008.96
2022-10-06T05:04:59.032Z,1008.94
2022-10-06T05:05:59.032Z,1008.94
2022-10-06T05:06:59.012Z,1009.01
2022-10-06T05:07:59.002Z,1009.09
2022-10-06T05:08:59.011Z,1009.11
2022-10-06T05:09:58.982Z,1009.10
2022-10-06T05:10:58.972Z,1009.08
2022-10-06T05:11:58.971Z,1009.04
2022-10-06T05:12:58.948Z,1009.15
2022-10-06T05:13:58.942Z,1009.19
2022-10-06T05:14:58.951Z,1009.15
2022-10-06T05:15:58.948Z,1009.20
2022-10-06T05:16:58.902Z,1009.22
2022-10-06T05:17:59.035Z,1009.25
2022-10-06T05:18:58.883Z,1009.25
2022-10-06T05:19:58.872Z,1009.28
2022-10-06T05:21:01.087Z,1009.32
2022-10-06T05:21:59.861Z,1009.25
2022-10-06T05:22:58.834Z,1009.29
2022-10-06T05:23:58.822Z,1009.34
2022-10-06T05:24:58.803Z,1009.33
2022-10-06T05:25:58.800Z,1009.39
2022-10-06T05:27:01.764Z,1009.39
2022-10-06T05:27:58.816Z,1009.41
2022-10-06T05:28:58.770Z,1009.47
2022-10-06T05:29:58.758Z,1009.48
2022-10-06T05:30:58.757Z,1009.48
2022-10-06T05:31:58.811Z,1009.48
2022-10-06T05:32:58.713Z,1009.57
2022-10-06T05:33:58.714Z,1009.58
2022-10-06T05:34:58.693Z,1009.61
2022-10-06T05:35:58.684Z,1009.65
2022-10-06T05:36:58.673Z,1009.65
2022-10-06T05:37:58.683Z,1009.72
2022-10-06T05:38:58.645Z,1009.71
2022-10-06T05:39:58.642Z,1009.71
2022-10-06T05:40:58.625Z,1009.77
2022-10-06T05:41:58.622Z,1009.72
2022-10-06T05:42:58.623Z,1009.72
2022-10-06T05:43:58.593Z,1009.83
2022-10-06T05:44:58.574Z,1009.77
2022-10-06T05:45:58.591Z,1009.72
2022-10-06T05:46:58.553Z,1009.77
2022-10-06T05:47:58.544Z,1009.87
2022-10-06T05:48:58.558Z,1009.88
2022-10-06T05:49:58.524Z,1009.90
2022-10-06T05:50:58.511Z,1009.88
2022-10-06T05:51:58.506Z,1009.86
2022-10-06T05:52:58.485Z,1009.92
2022-10-06T05:53:58.481Z,1009.94
2022-10-06T05:54:58.503Z,1009.99
2022-10-06T05:55:58.453Z,1009.94
2022-10-06T05:56:58.443Z,1010.02
2022-10-06T05:57:58.433Z,1010.01
2022-10-06T05:58:58.423Z,1010.03
2022-10-06T05:59:58.463Z,1010.07
2022-10-06T06:00:58.414Z,1010.07
2022-10-06T06:01:58.475Z,1010.08
2022-10-06T06:02:58.435Z,1010.16
2022-10-06T06:03:58.364Z,1010.09
2022-10-06T06:04:58.344Z,1010.17
2022-10-06T06:05:58.341Z,1010.13
2022-10-06T06:06:58.394Z,1010.16
2022-10-06T06:07:58.315Z,1010.23
2022-10-06T06:08:58.304Z,1010.23
2022-10-06T06:09:58.294Z,1010.25
2022-10-06T06:10:58.274Z,1010.25
2022-10-06T06:11:58.323Z,1010.27
2022-10-06T06:12:58.264Z,1010.25
2022-10-06T06:13:58.252Z,1010.25
2022-10-06T06:14:58.235Z,1010.31
2022-10-06T06:15:58.224Z,1010.35
2022-10-06T06:16:58.282Z,1010.35
2022-10-06T06:17:58.225Z,1010.40
2022-10-06T06:18:58.184Z,1010.39
2022-10-06T06:19:58.215Z,1010.40
2022-10-06T06:20:58.166Z,1010.44
2022-10-06T06:21:58.162Z,1010.47
2022-10-06T06:22:58.165Z,1010.49
2022-10-06T06:23:58.135Z,1010.47
2022-10-06T06:24:58.123Z,1010.45
2022-10-06T06:26:02.109Z,1010.48
2022-10-06T06:26:58.103Z,1010.57
2022-10-06T06:27:58.156Z,1010.63
2022-10-06T06:28:58.098Z,1010.57
2022-10-06T06:29:58.065Z,1010.55
2022-10-06T06:30:58.088Z,1010.60
2022-10-06T06:31:58.045Z,1010.55
2022-10-06T06:32:58.026Z,1010.58
2022-10-06T06:33:58.023Z,1010.54
2022-10-06T06:34:58.025Z,1010.61
2022-10-06T06:35:57.995Z,1010.56
2022-10-06T06:37:01.195Z,1010.69
2022-10-06T06:37:58.976Z,1010.72
2022-10-06T06:38:57.958Z,1010.64
2022-10-06T06:39:57.975Z,1010.67
2022-10-06T06:40:57.941Z,1010.75
2022-10-06T06:41:57.936Z,1010.77
2022-10-06T06:42:57.917Z,1010.72
2022-10-06T06:43:57.906Z,1010.71
2022-10-06T06:44:57.896Z,1010.78
2022-10-06T06:45:57.934Z,1010.82
2022-10-06T06:46:57.875Z,1010.80
2022-10-06T06:47:57.865Z,1010.79
2022-10-06T06:48:57.855Z,1010.85
2022-10-06T06:49:57.837Z,1010.86
2022-10-06T06:50:57.827Z,1010.86
2022-10-06T06:51:57.836Z,1010.92
2022-10-06T06:52:57.798Z,1010.95
2022-10-06T06:53:57.797Z,1010.91
2022-10-06T06:54:57.780Z,1010.96
2022-10-06T06:55:57.767Z,1011.00
2022-10-06T06:56:57.757Z,1011.10
2022-10-06T06:57:57.774Z,1011.16
2022-10-06T06:58:57.736Z,1011.07
2022-10-06T06:59:57.728Z,1011.07
2022-10-06T07:00:57.744Z,1011.04
2022-10-06T07:01:57.781Z,1011.09
2022-10-06T07:02:57.688Z,1011.17
2022-10-06T07:03:58.661Z,1011.21
2022-10-06T07:04:57.670Z,1011.25
2022-10-06T07:05:57.658Z,1011.27
2022-10-06T07:06:57.661Z,1011.23
2022-10-06T07:07:57.629Z,1011.29
2022-10-06T07:08:57.620Z,1011.30
2022-10-06T07:09:57.630Z,1011.26
2022-10-06T07:10:57.599Z,1011.28
2022-10-06T07:11:57.589Z,1011.28
2022-10-06T07:12:57.578Z,1011.27
2022-10-06T07:13:57.569Z,1011.20
2022-10-06T07:14:57.551Z,1011.28
2022-10-06T07:15:57.598Z,1011.24
2022-10-06T07:16:57.534Z,1011.28
2022-10-06T07:17:57.522Z,1011.26
2022-10-06T07:18:57.500Z,1011.27
2022-10-06T07:19:57.497Z,1011.25
2022-10-06T07:20:57.499Z,1011.30
2022-10-06T07:21:57.492Z,1011.30
2022-10-06T07:22:57.463Z,1011.33
2022-10-06T07:23:57.452Z,1011.37
2022-10-06T07:24:57.432Z,1011.35
2022-10-06T07:25:57.438Z,1011.35
2022-10-06T07:26:57.435Z,1011.39
2022-10-06T07:27:57.441Z,1011.40
2022-10-06T07:28:57.394Z,1011.41
2022-10-06T07:29:57.501Z,1011.49
2022-10-06T07:30:57.422Z,1011.42
2022-10-06T07:31:57.364Z,1011.46
2022-10-06T07:32:57.372Z,1011.46
2022-10-06T07:33:57.344Z,1011.46
2022-10-06T07:34:57.357Z,1011.42
2022-10-06T07:35:57.314Z,1011.43
2022-10-06T07:36:57.302Z,1011.52
2022-10-06T07:37:57.302Z,1011.51
2022-10-06T07:38:57.303Z,1011.49
2022-10-06T07:39:57.265Z,1011.43
2022-10-06T07:41:19.001Z,1011.52
2022-10-06T07:41:58.244Z,1011.52
2022-10-06T07:42:57.233Z,1011.58
2022-10-06T07:43:57.225Z,1011.66
2022-10-06T07:44:57.225Z,1011.67
2022-10-06T07:45:57.248Z,1011.69
2022-10-06T07:46:57.186Z,1011.64
2022-10-06T07:47:57.176Z,1011.65
2022-10-06T07:48:57.156Z,1011.68
2022-10-06T07:49:57.154Z,1011.74
2022-10-06T07:50:57.157Z,1011.73
2022-10-06T07:51:57.127Z,1011.71
2022-10-06T07:52:57.133Z,1011.75
2022-10-06T07:53:57.107Z,1011.74
2022-10-06T07:54:57.112Z,1011.78
2022-10-06T07:55:57.123Z,1011.79
2022-10-06T07:56:57.069Z,1011.85
2022-10-06T07:57:57.068Z,1011.88
2022-10-06T07:58:57.050Z,1011.88
2022-10-06T08:00:00.546Z,1011.88
2022-10-06T08:00:58.040Z,1011.87
2022-10-06T08:01:57.056Z,1011.91
2022-10-06T08:02:57.077Z,1011.89
2022-10-06T08:03:56.989Z,1011.89
2022-10-06T08:04:57.027Z,1011.90
2022-10-06T08:05:56.970Z,1011.96
2022-10-06T08:06:56.970Z,1011.96
2022-10-06T08:07:56.950Z,1011.95
2022-10-06T08:08:56.931Z,1011.94
2022-10-06T08:09:56.922Z,1012.03
2022-10-06T08:10:58.327Z,1012.02
2022-10-06T08:11:56.921Z,1012.04
2022-10-06T08:12:56.891Z,1012.13
2022-10-06T08:13:56.881Z,1012.03
2022-10-06T08:14:57.265Z,1012.05
2022-10-06T08:15:56.877Z,1012.10
2022-10-06T08:16:56.842Z,1012.08
2022-10-06T08:17:56.851Z,1012.07
2022-10-06T08:18:56.814Z,1012.15
2022-10-06T08:19:56.813Z,1012.14
2022-10-06T08:20:56.795Z,1012.20
2022-10-06T08:21:59.874Z,1012.05
2022-10-06T08:22:57.801Z,1012.13
2022-10-06T08:23:56.774Z,1012.17
2022-10-06T08:25:05.774Z,1012.17
2022-10-06T08:25:57.745Z,1012.21
2022-10-06T08:26:56.732Z,1012.21
2022-10-06T08:27:56.748Z,1012.24
2022-10-06T08:28:56.725Z,1012.24
2022-10-06T08:29:56.696Z,1012.27
2022-10-06T08:30:56.727Z,1012.31
2022-10-06T08:31:56.773Z,1012.27
2022-10-06T08:32:56.665Z,1012.34
2022-10-06T08:33:56.690Z,1012.32
2022-10-06T08:34:57.208Z,1012.24
2022-10-06T08:35:56.626Z,1012.37
2022-10-06T08:37:18.681Z,1012.31
2022-10-06T08:37:57.615Z,1012.32
2022-10-06T08:38:56.597Z,1012.38
2022-10-06T08:39:56.608Z,1012.29
2022-10-06T08:40:56.578Z,1012.34
2022-10-06T08:41:56.567Z,1012.37
2022-10-06T08:42:56.559Z,1012.45
2022-10-06T08:43:56.538Z,1012.41
2022-10-06T08:44:56.811Z,1012.47
2022-10-06T08:45:56.544Z,1012.50
2022-10-06T08:46:56.525Z,1012.45
2022-10-06T08:47:56.498Z,1012.42
2022-10-06T08:48:56.488Z,1012.44
2022-10-06T08:49:56.789Z,1012.39
2022-10-06T08:50:56.468Z,1012.48
2022-10-06T08:51:56.470Z,1012.44
2022-10-06T08:52:56.449Z,1012.49
2022-10-06T08:53:56.430Z,1012.48
2022-10-06T08:54:56.430Z,1012.47
2022-10-06T08:55:56.411Z,1012.50
2022-10-06T08:56:56.422Z,1012.53
2022-10-06T08:57:56.382Z,1012.55
2022-10-06T08:58:56.373Z,1012.50
2022-10-06T08:59:56.582Z,1012.57
2022-10-06T09:00:56.380Z,1012.56
2022-10-06T09:01:56.453Z,1012.57
2022-10-06T09:02:56.353Z,1012.58
2022-10-06T09:03:56.331Z,1012.60
2022-10-06T09:04:56.313Z,1012.67
2022-10-06T09:05:56.303Z,1012.65
2022-10-06T09:06:56.292Z,1012.66
2022-10-06T09:07:56.275Z,1012.58
2022-10-06T09:08:56.284Z,1012.61
2022-10-06T09:09:56.575Z,1012.58
2022-10-06T09:10:56.245Z,1012.59
2022-10-06T09:11:56.225Z,1012.64
2022-10-06T09:12:56.224Z,1012.65
2022-10-06T09:13:56.247Z,1012.70
2022-10-06T09:14:56.196Z,1012.70
2022-10-06T09:15:56.195Z,1012.67
2022-10-06T09:16:56.177Z,1012.69
2022-10-06T09:17:56.157Z,1012.72
2022-10-06T09:19:08.164Z,1012.71
2022-10-06T09:19:57.469Z,1012.80
2022-10-06T09:20:56.127Z,1012.75
2022-10-06T09:21:56.123Z,1012.80
2022-10-06T09:22:56.107Z,1012.77
2022-10-06T09:23:56.101Z,1012.74
2022-10-06T09:25:03.159Z,1012.69
2022-10-06T09:25:56.069Z,1012.74
2022-10-06T09:26:56.069Z,1012.75
2022-10-06T09:27:56.138Z,1012.75
2022-10-06T09:28:56.041Z,1012.72
2022-10-06T09:29:56.275Z,1012.78
2022-10-06T09:30:56.066Z,1012.76
2022-10-06T09:31:56.001Z,1012.78
2022-10-06T09:32:55.999Z,1012.77
2022-10-06T09:33:55.980Z,1012.78
2022-10-06T09:34:55.971Z,1012.80
2022-10-06T09:35:55.960Z,1012.75
2022-10-06T09:37:00.247Z,1012.78
2022-10-06T09:37:56.934Z,1012.85
2022-10-06T09:38:55.929Z,1012.82
2022-10-06T09:39:56.224Z,1012.88
2022-10-06T09:40:55.901Z,1012.87
2022-10-06T09:41:55.892Z,1012.84
2022-10-06T09:42:55.902Z,1012.90
2022-10-06T09:43:55.862Z,1012.89
2022-10-06T09:44:55.861Z,1012.96
2022-10-06T09:45:55.886Z,1012.99
2022-10-06T09:46:55.832Z,1012.90
2022-10-06T09:47:55.823Z,1012.95
2022-10-06T09:48:55.901Z,1012.96
2022-10-06T09:49:55.931Z,1012.97
2022-10-06T09:50:55.790Z,1012.95
2022-10-06T09:51:55.780Z,1013.00
2022-10-06T09:52:55.763Z,1012.98
2022-10-06T09:53:55.772Z,1013.02
2022-10-06T09:54:55.743Z,1013.02
2022-10-06T09:55:55.732Z,1013.02
2022-10-06T09:56:55.723Z,1013.00
2022-10-06T09:57:55.703Z,1013.03
2022-10-06T09:58:55.696Z,1013.00
2022-10-06T09:59:55.836Z,1013.03
2022-10-06T10:00:55.759Z,1012.98
2022-10-06T10:01:55.664Z,1013.04
2022-10-06T10:02:55.681Z,1013.01
2022-10-06T10:04:18.858Z,1012.97
2022-10-06T10:04:56.653Z,1012.99
2022-10-06T10:05:55.627Z,1012.98
2022-10-06T10:06:55.604Z,1012.98
2022-10-06T10:07:55.594Z,1013.00
2022-10-06T10:08:55.586Z,1013.01
2022-10-06T10:09:55.776Z,1013.03
2022-10-06T10:10:55.584Z,1013.01
2022-10-06T10:11:55.546Z,1012.99
2022-10-06T10:12:55.535Z,1013.01
2022-10-06T10:13:55.566Z,1013.02
2022-10-06T10:14:55.518Z,1013.05
2022-10-06T10:15:55.599Z,1013.06
2022-10-06T10:16:55.509Z,1013.06
2022-10-06T10:17:55.479Z,1013.06
2022-10-06T10:18:55.474Z,1013.02
2022-10-06T10:19:55.829Z,1013.02
2022-10-06T10:20:55.448Z,1013.01
2022-10-06T10:21:55.456Z,1013.03
2022-10-06T10:22:55.428Z,1012.96
2022-10-06T10:23:55.432Z,1012.92
2022-10-06T10:24:55.397Z,1012.98
2022-10-06T10:25:55.412Z,1012.95
2022-10-06T10:26:55.387Z,1012.98
2022-10-06T10:27:55.511Z,1013.02
2022-10-06T10:28:55.358Z,1012.96
2022-10-06T10:29:55.618Z,1013.02
2022-10-06T10:30:55.388Z,1012.99
2022-10-06T10:31:55.436Z,1013.00
2022-10-06T10:32:55.342Z,1013.00
2022-10-06T10:34:11.808Z,1012.98
2022-10-06T10:34:56.569Z,1012.99
2022-10-06T10:35:55.269Z,1012.99
2022-10-06T10:36:55.267Z,1012.98
2022-10-06T10:37:55.259Z,1012.95
2022-10-06T10:38:55.282Z,1012.95
2022-10-06T10:39:55.251Z,1013.01
2022-10-06T10:40:55.219Z,1012.96
2022-10-06T10:41:55.210Z,1012.98
2022-10-06T10:42:55.199Z,1012.97
2022-10-06T10:43:55.189Z,1012.99
2022-10-06T10:44:55.441Z,1012.96
2022-10-06T10:45:55.170Z,1012.95
2022-10-06T10:46:55.226Z,1012.96
2022-10-06T10:47:55.140Z,1012.97
2022-10-06T10:48:55.129Z,1012.91
2022-10-06T10:49:55.131Z,1013.00
2022-10-06T10:50:55.121Z,1013.03
2022-10-06T10:51:55.091Z,1013.06
2022-10-06T10:52:55.222Z,1013.06
2022-10-06T10:53:55.069Z,1012.99
2022-10-06T10:54:55.222Z,1013.00
2022-10-06T10:55:55.042Z,1013.04
2022-10-06T10:56:55.061Z,1012.99
2022-10-06T10:57:55.016Z,1012.97
2022-10-06T10:58:55.014Z,1013.00
2022-10-06T10:59:54.997Z,1012.93
2022-10-06T11:00:55.060Z,1012.96
2022-10-06T11:01:55.005Z,1012.96
2022-10-06T11:02:55.027Z,1012.94
2022-10-06T11:03:54.952Z,1012.95
2022-10-06T11:04:55.030Z,1012.94
2022-10-06T11:05:54.923Z,1012.91
2022-10-06T11:06:54.917Z,1012.94
2022-10-06T11:07:54.912Z,1012.98
2022-10-06T11:08:54.917Z,1012.97
2022-10-06T11:09:54.886Z,1012.97
2022-10-06T11:10:54.865Z,1012.98
2022-10-06T11:11:54.857Z,1013.05
2022-10-06T11:12:54.844Z,1013.04
2022-10-06T11:13:54.898Z,1012.99
2022-10-06T11:14:54.878Z,1013.02
2022-10-06T11:15:54.869Z,1013.02
2022-10-06T11:16:54.939Z,1013.04
2022-10-06T11:17:54.805Z,1013.03
2022-10-06T11:18:54.775Z,1013.04
2022-10-06T11:19:54.787Z,1013.04
2022-10-06T11:20:54.755Z,1013.04
2022-10-06T11:21:54.744Z,1013.02
2022-10-06T11:22:54.735Z,1013.01
2022-10-06T11:23:54.716Z,1013.01
2022-10-06T11:24:54.741Z,1012.98
2022-10-06T11:25:54.714Z,1012.99
2022-10-06T11:26:54.687Z,1012.99
2022-10-06T11:27:54.666Z,1013.02
2022-10-06T11:28:54.661Z,1013.06
2022-10-06T11:29:54.646Z,1012.96
2022-10-06T11:30:54.636Z,1012.94
2022-10-06T11:31:54.722Z,1012.97
2022-10-06T11:32:54.618Z,1012.99
2022-10-06T11:33:54.606Z,1012.99
2022-10-06T11:34:54.692Z,1012.97
2022-10-06T11:35:54.578Z,1012.98
2022-10-06T11:36:54.589Z,1012.94
2022-10-06T11:37:54.578Z,1013.01
2022-10-06T11:38:54.547Z,1012.98
2022-10-06T11:39:54.640Z,1012.93
2022-10-06T11:40:54.527Z,1012.94
2022-10-06T11:41:54.512Z,1012.99
2022-10-06T11:42:54.498Z,1012.93
2022-10-06T11:43:54.525Z,1012.96
2022-10-06T11:44:54.486Z,1012.95
2022-10-06T11:45:54.527Z,1012.94
2022-10-06T11:46:54.459Z,1012.95
2022-10-06T11:47:54.439Z,1012.95
2022-10-06T11:48:54.430Z,1013.01
2022-10-06T11:49:54.441Z,1012.94
2022-10-06T11:50:54.408Z,1012.92
2022-10-06T11:51:58.365Z,1012.85
2022-10-06T11:52:55.395Z,1012.90
2022-10-06T11:53:54.378Z,1012.88
2022-10-06T11:54:54.367Z,1012.82
2022-10-06T11:55:54.361Z,1012.81
2022-10-06T11:56:54.340Z,1012.88
2022-10-06T11:57:54.331Z,1012.82
2022-10-06T11:58:54.360Z,1012.79
2022-10-06T11:59:54.302Z,1012.81
2022-10-06T12:00:54.330Z,1012.76
2022-10-06T12:01:54.432Z,1012.84
2022-10-06T12:02:54.430Z,1012.76
2022-10-06T12:03:54.260Z,1012.74
2022-10-06T12:04:54.249Z,1012.75
2022-10-06T12:05:56.878Z,1012.75